SWR1X LSZH-EDDS
Flight info
| Callsign | SWR1X |
|---|---|
| Flight time | 0h 26m |
| Altitude | 17000 |
| Route | DEGES Z1 BODAN/N0371F160 Z1 ALAGO Z4 ARSUT T125 REUTL REUTL5A |
| Aircraft | A320/M-SDE3FGHIRWY/LB1 |
Departure
| Time | 2026-04-26 08:37 |
|---|---|
| Airport | Zürich Airport (LSZH) |
Arrival
| Time | 2026-04-26 09:04 |
|---|---|
| Airport | Stuttgart Airport (EDDS) |
| Time | Latitude | Longitude | Altitude | Speed | Heading |
|---|---|---|---|---|---|
| 2026-04-26 08:16 | 47.44865 | 8.55828 | 1405 ft | 0 kts | 242° |
| 2026-04-26 08:29 | 47.44860 | 8.55814 | 1402 ft | 5 kts | 244° |
| 2026-04-26 08:29 | 47.44864 | 8.55749 | 1397 ft | 10 kts | 311° |
| 2026-04-26 08:29 | 47.44868 | 8.55744 | 1397 ft | 10 kts | 316° |
| 2026-04-26 08:30 | 47.44899 | 8.55714 | 1405 ft | 10 kts | 332° |
| 2026-04-26 08:30 | 47.44978 | 8.55660 | 1402 ft | 17 kts | 335° |
| 2026-04-26 08:30 | 47.45100 | 8.55582 | 1402 ft | 20 kts | 338° |
| 2026-04-26 08:30 | 47.45235 | 8.55518 | 1403 ft | 21 kts | 360° |
| 2026-04-26 08:31 | 47.45374 | 8.55508 | 1401 ft | 19 kts | 341° |
| 2026-04-26 08:31 | 47.45509 | 8.55721 | 1397 ft | 15 kts | 95° |
| 2026-04-26 08:32 | 47.45498 | 8.55884 | 1397 ft | 16 kts | 96° |
| 2026-04-26 08:32 | 47.45486 | 8.56056 | 1402 ft | 17 kts | 96° |
| 2026-04-26 08:32 | 47.45479 | 8.56195 | 1397 ft | 12 kts | 84° |
| 2026-04-26 08:32 | 47.45525 | 8.56303 | 1400 ft | 13 kts | 51° |
| 2026-04-26 08:33 | 47.45584 | 8.56408 | 1400 ft | 12 kts | 55° |
| 2026-04-26 08:33 | 47.45589 | 8.56536 | 1405 ft | 13 kts | 100° |
| 2026-04-26 08:33 | 47.45581 | 8.56680 | 1403 ft | 16 kts | 95° |
| 2026-04-26 08:33 | 47.45568 | 8.56868 | 1397 ft | 19 kts | 96° |
| 2026-04-26 08:34 | 47.45583 | 8.57005 | 1407 ft | 12 kts | 43° |
| 2026-04-26 08:34 | 47.45660 | 8.57027 | 1397 ft | 7 kts | 351° |
| 2026-04-26 08:34 | 47.45664 | 8.56982 | 1400 ft | 0 kts | 272° |
| 2026-04-26 08:36 | 47.45666 | 8.56938 | 1399 ft | 24 kts | 275° |
| 2026-04-26 08:36 | 47.45715 | 8.56284 | 1403 ft | 100 kts | 276° |
| 2026-04-26 08:36 | 47.45806 | 8.54989 | 1404 ft | 155 kts | 277° |
| 2026-04-26 08:37 | 47.45918 | 8.53380 | 2003 ft | 156 kts | 276° |
| 2026-04-26 08:37 | 47.46025 | 8.51804 | 2739 ft | 154 kts | 276° |
| 2026-04-26 08:37 | 47.46124 | 8.50212 | 3310 ft | 158 kts | 278° |
| 2026-04-26 08:37 | 47.46217 | 8.48499 | 3713 ft | 178 kts | 266° |
| 2026-04-26 08:38 | 47.45716 | 8.46757 | 4003 ft | 197 kts | 234° |
| 2026-04-26 08:38 | 47.44966 | 8.44915 | 4295 ft | 221 kts | 240° |
| 2026-04-26 08:38 | 47.44194 | 8.42834 | 4876 ft | 235 kts | 241° |
| 2026-04-26 08:38 | 47.43430 | 8.40694 | 5703 ft | 237 kts | 241° |
| 2026-04-26 08:39 | 47.42632 | 8.38565 | 6555 ft | 236 kts | 231° |
| 2026-04-26 08:39 | 47.41335 | 8.37135 | 7336 ft | 237 kts | 197° |
| 2026-04-26 08:39 | 47.39707 | 8.37035 | 8037 ft | 239 kts | 162° |
| 2026-04-26 08:39 | 47.38327 | 8.38337 | 8736 ft | 240 kts | 126° |
| 2026-04-26 08:40 | 47.37694 | 8.40582 | 9451 ft | 241 kts | 92° |
| 2026-04-26 08:40 | 47.38024 | 8.42960 | 10181 ft | 240 kts | 57° |
| 2026-04-26 08:40 | 47.38710 | 8.44233 | 10630 ft | 240 kts | 42° |
| 2026-04-26 08:40 | 47.39909 | 8.45974 | 11312 ft | 244 kts | 43° |
| 2026-04-26 08:41 | 47.41136 | 8.47745 | 11996 ft | 248 kts | 42° |
| 2026-04-26 08:41 | 47.42379 | 8.49537 | 12703 ft | 252 kts | 41° |
| 2026-04-26 08:41 | 47.43643 | 8.51354 | 13422 ft | 256 kts | 41° |
| 2026-04-26 08:41 | 47.45278 | 8.53910 | 14307 ft | 262 kts | 50° |
| 2026-04-26 08:42 | 47.45934 | 8.55460 | 14666 ft | 270 kts | 65° |
| 2026-04-26 08:42 | 47.46412 | 8.58271 | 14849 ft | 295 kts | 83° |
| 2026-04-26 08:42 | 47.46511 | 8.61428 | 15011 ft | 319 kts | 89° |
| 2026-04-26 08:42 | 47.46464 | 8.64819 | 15139 ft | 342 kts | 90° |
| 2026-04-26 08:43 | 47.46403 | 8.68451 | 15264 ft | 363 kts | 90° |
| 2026-04-26 08:43 | 47.46397 | 8.72266 | 15536 ft | 377 kts | 88° |
| 2026-04-26 08:43 | 47.46462 | 8.76178 | 16073 ft | 383 kts | 86° |
| 2026-04-26 08:43 | 47.46571 | 8.80131 | 16681 ft | 387 kts | 88° |
| 2026-04-26 08:44 | 47.46416 | 8.84124 | 17125 ft | 392 kts | 97° |
| 2026-04-26 08:44 | 47.45899 | 8.88105 | 17232 ft | 400 kts | 101° |
| 2026-04-26 08:44 | 47.45313 | 8.92204 | 17245 ft | 412 kts | 101° |
| 2026-04-26 08:44 | 47.44710 | 8.96358 | 17243 ft | 415 kts | 101° |
| 2026-04-26 08:45 | 47.44102 | 9.00526 | 17247 ft | 415 kts | 101° |
| 2026-04-26 08:45 | 47.43493 | 9.04701 | 17247 ft | 415 kts | 101° |
| 2026-04-26 08:45 | 47.42888 | 9.08868 | 17248 ft | 415 kts | 101° |
| 2026-04-26 08:45 | 47.42313 | 9.13050 | 17245 ft | 415 kts | 97° |
| 2026-04-26 08:46 | 47.42146 | 9.17290 | 17246 ft | 413 kts | 86° |
| 2026-04-26 08:46 | 47.42520 | 9.21489 | 17250 ft | 412 kts | 76° |
| 2026-04-26 08:46 | 47.43408 | 9.25495 | 17255 ft | 411 kts | 65° |
| 2026-04-26 08:46 | 47.44746 | 9.29208 | 17255 ft | 410 kts | 59° |
| 2026-04-26 08:47 | 47.46169 | 9.32852 | 17251 ft | 410 kts | 58° |
| 2026-04-26 08:47 | 47.47787 | 9.36308 | 17247 ft | 408 kts | 49° |
| 2026-04-26 08:47 | 47.49798 | 9.39241 | 17242 ft | 406 kts | 37° |
| 2026-04-26 08:47 | 47.52143 | 9.41553 | 17243 ft | 405 kts | 26° |
| 2026-04-26 08:48 | 47.54730 | 9.43171 | 17236 ft | 403 kts | 17° |
| 2026-04-26 08:48 | 47.57398 | 9.44435 | 17235 ft | 402 kts | 14° |
| 2026-04-26 08:48 | 47.60140 | 9.45179 | 17235 ft | 401 kts | 4° |
| 2026-04-26 08:48 | 47.62924 | 9.45363 | 17237 ft | 401 kts | 1° |
| 2026-04-26 08:49 | 47.65683 | 9.45500 | 17237 ft | 401 kts | 1° |
| 2026-04-26 08:49 | 47.68504 | 9.45644 | 17230 ft | 401 kts | 1° |
| 2026-04-26 08:49 | 47.71298 | 9.45797 | 17235 ft | 401 kts | 1° |
| 2026-04-26 08:49 | 47.74086 | 9.45954 | 17229 ft | 401 kts | 1° |
| 2026-04-26 08:50 | 47.76841 | 9.46111 | 17232 ft | 401 kts | 1° |
| 2026-04-26 08:50 | 47.79630 | 9.46110 | 17224 ft | 401 kts | 354° |
| 2026-04-26 08:50 | 47.82371 | 9.45438 | 17238 ft | 399 kts | 345° |
| 2026-04-26 08:50 | 47.85074 | 9.44440 | 17235 ft | 399 kts | 345° |
| 2026-04-26 08:51 | 47.90469 | 9.42464 | 17244 ft | 399 kts | 345° |
| 2026-04-26 08:51 | 47.93171 | 9.41478 | 17241 ft | 400 kts | 345° |
| 2026-04-26 08:51 | 47.95907 | 9.40479 | 17231 ft | 399 kts | 345° |
| 2026-04-26 08:52 | 47.98576 | 9.39504 | 17226 ft | 399 kts | 345° |
| 2026-04-26 08:52 | 48.01231 | 9.38535 | 16981 ft | 387 kts | 345° |
| 2026-04-26 08:52 | 48.03746 | 9.37616 | 16558 ft | 380 kts | 345° |
| 2026-04-26 08:52 | 48.06299 | 9.36680 | 16057 ft | 377 kts | 345° |
| 2026-04-26 08:53 | 48.08840 | 9.35745 | 15532 ft | 375 kts | 345° |
| 2026-04-26 08:53 | 48.11361 | 9.34816 | 15018 ft | 372 kts | 345° |
| 2026-04-26 08:53 | 48.13873 | 9.33889 | 14496 ft | 370 kts | 345° |
| 2026-04-26 08:53 | 48.16400 | 9.33175 | 13954 ft | 369 kts | 354° |
| 2026-04-26 08:54 | 48.18995 | 9.33209 | 13379 ft | 368 kts | 5° |
| 2026-04-26 08:54 | 48.21534 | 9.33635 | 12840 ft | 365 kts | 6° |
| 2026-04-26 08:54 | 48.24056 | 9.34054 | 12083 ft | 367 kts | 6° |
| 2026-04-26 08:54 | 48.26559 | 9.34460 | 11495 ft | 365 kts | 6° |
| 2026-04-26 08:55 | 48.29109 | 9.34872 | 10925 ft | 362 kts | 6° |
| 2026-04-26 08:55 | 48.31552 | 9.35269 | 10622 ft | 351 kts | 6° |
| 2026-04-26 08:55 | 48.33954 | 9.35609 | 10496 ft | 334 kts | 1° |
| 2026-04-26 08:55 | 48.36183 | 9.35250 | 10375 ft | 320 kts | 346° |
| 2026-04-26 08:56 | 48.38238 | 9.34055 | 10256 ft | 308 kts | 331° |
| 2026-04-26 08:56 | 48.39952 | 9.32217 | 10136 ft | 298 kts | 320° |
| 2026-04-26 08:56 | 48.41490 | 9.30216 | 9975 ft | 288 kts | 320° |
| 2026-04-26 08:56 | 48.43000 | 9.28265 | 9558 ft | 288 kts | 320° |
| 2026-04-26 08:57 | 48.44495 | 9.26341 | 9254 ft | 285 kts | 320° |
| 2026-04-26 08:57 | 48.45990 | 9.24425 | 8771 ft | 280 kts | 320° |
| 2026-04-26 08:57 | 48.47471 | 9.22528 | 8101 ft | 279 kts | 320° |
| 2026-04-26 08:57 | 48.48940 | 9.20638 | 7458 ft | 277 kts | 320° |
| 2026-04-26 08:58 | 48.50395 | 9.18761 | 6836 ft | 274 kts | 320° |
| 2026-04-26 08:58 | 48.51838 | 9.16894 | 6204 ft | 272 kts | 320° |
| 2026-04-26 08:58 | 48.53269 | 9.15043 | 5545 ft | 270 kts | 320° |
| 2026-04-26 08:58 | 48.54688 | 9.13209 | 4974 ft | 267 kts | 320° |
| 2026-04-26 08:59 | 48.56093 | 9.11393 | 4601 ft | 261 kts | 320° |
| 2026-04-26 08:59 | 48.57430 | 9.09660 | 4537 ft | 246 kts | 320° |
| 2026-04-26 08:59 | 48.58687 | 9.08028 | 4468 ft | 233 kts | 320° |
| 2026-04-26 08:59 | 48.59894 | 9.06458 | 4374 ft | 223 kts | 320° |
| 2026-04-26 09:00 | 48.61049 | 9.04956 | 4272 ft | 215 kts | 320° |
| 2026-04-26 09:00 | 48.62180 | 9.03535 | 4186 ft | 210 kts | 328° |
| 2026-04-26 09:00 | 48.63533 | 9.02908 | 4073 ft | 203 kts | 4° |
| 2026-04-26 09:00 | 48.64850 | 9.03513 | 3931 ft | 198 kts | 35° |
| 2026-04-26 09:01 | 48.65714 | 9.05091 | 3476 ft | 199 kts | 71° |
| 2026-04-26 09:01 | 48.66103 | 9.07074 | 3129 ft | 193 kts | 75° |
| 2026-04-26 09:01 | 48.66469 | 9.08992 | 2840 ft | 185 kts | 74° |
| 2026-04-26 09:01 | 48.66812 | 9.10782 | 2598 ft | 170 kts | 73° |
| 2026-04-26 09:02 | 48.67126 | 9.12427 | 2400 ft | 155 kts | 73° |
| 2026-04-26 09:02 | 48.67415 | 9.13941 | 2168 ft | 146 kts | 73° |
| 2026-04-26 09:02 | 48.67692 | 9.15400 | 1967 ft | 142 kts | 73° |
| 2026-04-26 09:02 | 48.67962 | 9.16835 | 1793 ft | 141 kts | 72° |
| 2026-04-26 09:03 | 48.68236 | 9.18257 | 1619 ft | 141 kts | 71° |
| 2026-04-26 09:03 | 48.68510 | 9.19680 | 1427 ft | 141 kts | 72° |
| 2026-04-26 09:03 | 48.68778 | 9.21089 | 1291 ft | 133 kts | 72° |
| 2026-04-26 09:03 | 48.68996 | 9.22230 | 1287 ft | 89 kts | 74° |
| 2026-04-26 09:04 | 48.69125 | 9.22871 | 1288 ft | 43 kts | 59° |
| 2026-04-26 09:04 | 48.69271 | 9.23104 | 1287 ft | 21 kts | 43° |
| 2026-04-26 09:04 | 48.69386 | 9.23126 | 1288 ft | 18 kts | 317° |
| 2026-04-26 09:04 | 48.69389 | 9.22939 | 1288 ft | 19 kts | 255° |
| 2026-04-26 09:05 | 48.69350 | 9.22735 | 1287 ft | 21 kts | 251° |
| 2026-04-26 09:05 | 48.69309 | 9.22517 | 1285 ft | 22 kts | 254° |
| 2026-04-26 09:05 | 48.69264 | 9.22285 | 1285 ft | 24 kts | 255° |
| 2026-04-26 09:05 | 48.69219 | 9.22038 | 1288 ft | 25 kts | 253° |
| 2026-04-26 09:06 | 48.69169 | 9.21779 | 1285 ft | 26 kts | 253° |
| 2026-04-26 09:06 | 48.69125 | 9.21543 | 1285 ft | 22 kts | 254° |
| 2026-04-26 09:06 | 48.69082 | 9.21318 | 1287 ft | 23 kts | 253° |
| 2026-04-26 09:06 | 48.69036 | 9.21080 | 1285 ft | 24 kts | 253° |
| 2026-04-26 09:07 | 48.68989 | 9.20827 | 1288 ft | 26 kts | 254° |
| 2026-04-26 09:07 | 48.68938 | 9.20563 | 1286 ft | 27 kts | 254° |
| 2026-04-26 09:07 | 48.68886 | 9.20287 | 1289 ft | 28 kts | 253° |
| 2026-04-26 09:07 | 48.68833 | 9.20013 | 1285 ft | 24 kts | 252° |
| 2026-04-26 09:08 | 48.68873 | 9.19865 | 1288 ft | 14 kts | 315° |
| 2026-04-26 09:08 | 48.68949 | 9.19786 | 1287 ft | 10 kts | 345° |
| 2026-04-26 09:08 | 48.68962 | 9.19780 | 1285 ft | 0 kts | 344° |